sensor_id;sensor_type;location;lat;lon;timestamp;pressure;altitude;pressure_sealevel;temperature;humidity
52319;BME280;38258;51.148;14.068;2023-03-01T00:00:02;99498.59;;;-10.32;100.00
52319;BME280;38258;51.148;14.068;2023-03-01T00:02:37;99643.75;;;-9.96;100.00
52319;BME280;38258;51.148;14.068;2023-03-01T00:05:04;99637.31;;;-10.27;100.00
52319;BME280;38258;51.148;14.068;2023-03-01T00:07:32;99586.34;;;-10.55;100.00
52319;BME280;38258;51.148;14.068;2023-03-01T00:10:01;99627.66;;;-10.20;100.00
52319;BME280;38258;51.148;14.068;2023-03-01T00:12:28;99512.66;;;-10.72;100.00
52319;BME280;38258;51.148;14.068;2023-03-01T00:14:57;99358.97;;;-11.46;100.00
52319;BME280;38258;51.148;14.068;2023-03-01T00:17:27;99412.75;;;-11.13;100.00
52319;BME280;38258;51.148;14.068;2023-03-01T00:19:54;99365.53;;;-11.60;100.00
52319;BME280;38258;51.148;14.068;2023-03-01T00:22:21;99538.69;;;-10.73;100.00
52319;BME280;38258;51.148;14.068;2023-03-01T00:24:48;99419.94;;;-11.41;100.00
52319;BME280;38258;51.148;14.068;2023-03-01T00:27:17;99636.44;;;-10.27;100.00
52319;BME280;38258;51.148;14.068;2023-03-01T00:29:44;99419.88;;;-11.31;100.00
52319;BME280;38258;51.148;14.068;2023-03-01T00:32:11;99616.91;;;-10.06;100.00
52319;BME280;38258;51.148;14.068;2023-03-01T00:34:40;99512.47;;;-10.39;100.00
52319;BME280;38258;51.148;14.068;2023-03-01T00:37:06;99344.25;;;-11.52;100.00
52319;BME280;38258;51.148;14.068;2023-03-01T00:39:33;99366.16;;;-11.28;100.00
52319;BME280;38258;51.148;14.068;2023-03-01T00:42:02;99357.22;;;-11.81;100.00
52319;BME280;38258;51.148;14.068;2023-03-01T00:44:29;99552.59;;;-10.90;100.00
52319;BME280;38258;51.148;14.068;2023-03-01T00:46:56;99498.72;;;-11.01;100.00
52319;BME280;38258;51.148;14.068;2023-03-01T00:49:23;99372.69;;;-11.76;100.00
52319;BME280;38258;51.148;14.068;2023-03-01T00:51:54;99455.56;;;-11.26;100.00
52319;BME280;38258;51.148;14.068;2023-03-01T00:54:22;99625.13;;;-10.20;100.00
52319;BME280;38258;51.148;14.068;2023-03-01T00:56:49;99389.06;;;-11.49;100.00
52319;BME280;38258;51.148;14.068;2023-03-01T00:59:16;99406.44;;;-11.64;100.00
52319;BME280;38258;51.148;14.068;2023-03-01T01:01:43;99358.88;;;-11.70;100.00
52319;BME280;38258;51.148;14.068;2023-03-01T01:04:12;99391.47;;;-11.51;100.00
52319;BME280;38258;51.148;14.068;2023-03-01T01:06:41;99573.91;;;-10.64;100.00
52319;BME280;38258;51.148;14.068;2023-03-01T01:09:13;99354.44;;;-11.84;100.00
52319;BME280;38258;51.148;14.068;2023-03-01T01:11:43;99461.25;;;-11.06;100.00
52319;BME280;38258;51.148;14.068;2023-03-01T01:14:10;99435.72;;;-11.44;100.00
52319;BME280;38258;51.148;14.068;2023-03-01T01:16:37;99614.63;;;-10.49;100.00
52319;BME280;38258;51.148;14.068;2023-03-01T01:19:04;99617.81;;;-10.52;100.00
52319;BME280;38258;51.148;14.068;2023-03-01T01:21:31;99590.41;;;-10.57;100.00
52319;BME280;38258;51.148;14.068;2023-03-01T01:23:58;99591.38;;;-10.67;100.00
52319;BME280;38258;51.148;14.068;2023-03-01T01:26:28;99433.88;;;-11.69;100.00
52319;BME280;38258;51.148;14.068;2023-03-01T01:28:56;99564.09;;;-10.94;100.00
52319;BME280;38258;51.148;14.068;2023-03-01T01:31:24;99433.16;;;-11.56;100.00
52319;BME280;38258;51.148;14.068;2023-03-01T01:33:52;99325.13;;;-11.94;100.00
52319;BME280;38258;51.148;14.068;2023-03-01T01:36:21;99495.66;;;-11.31;100.00
52319;BME280;38258;51.148;14.068;2023-03-01T01:38:50;99481.47;;;-10.95;100.00
52319;BME280;38258;51.148;14.068;2023-03-01T01:41:17;99355.13;;;-11.53;100.00
52319;BME280;38258;51.148;14.068;2023-03-01T01:43:47;99507.59;;;-10.72;100.00
52319;BME280;38258;51.148;14.068;2023-03-01T01:46:20;99595.06;;;-10.28;100.00
52319;BME280;38258;51.148;14.068;2023-03-01T01:48:53;99426.88;;;-11.39;100.00
52319;BME280;38258;51.148;14.068;2023-03-01T01:51:24;99390.88;;;-11.58;100.00
52319;BME280;38258;51.148;14.068;2023-03-01T01:53:56;99461.22;;;-11.18;100.00
52319;BME280;38258;51.148;14.068;2023-03-01T01:56:26;99461.63;;;-11.24;100.00
52319;BME280;38258;51.148;14.068;2023-03-01T01:58:55;99473.31;;;-11.02;100.00
52319;BME280;38258;51.148;14.068;2023-03-01T02:01:22;99390.59;;;-11.51;100.00
52319;BME280;38258;51.148;14.068;2023-03-01T02:03:49;99351.81;;;-11.63;100.00
52319;BME280;38258;51.148;14.068;2023-03-01T02:06:20;99470.94;;;-10.89;100.00
52319;BME280;38258;51.148;14.068;2023-03-01T02:08:49;99295.06;;;-12.03;100.00
52319;BME280;38258;51.148;14.068;2023-03-01T02:11:19;99358.72;;;-11.61;100.00
52319;BME280;38258;51.148;14.068;2023-03-01T02:13:47;99485.25;;;-10.89;100.00
52319;BME280;38258;51.148;14.068;2023-03-01T02:16:17;99323.06;;;-11.88;100.00
52319;BME280;38258;51.148;14.068;2023-03-01T02:18:44;99329.34;;;-11.83;100.00
52319;BME280;38258;51.148;14.068;2023-03-01T02:21:23;99369.56;;;-11.62;100.00
52319;BME280;38258;51.148;14.068;2023-03-01T02:23:53;99558.03;;;-10.73;100.00
52319;BME280;38258;51.148;14.068;2023-03-01T02:26:29;99476.28;;;-11.08;100.00
52319;BME280;38258;51.148;14.068;2023-03-01T02:29:01;99500.53;;;-11.10;100.00
52319;BME280;38258;51.148;14.068;2023-03-01T02:31:28;99278.22;;;-12.14;100.00
52319;BME280;38258;51.148;14.068;2023-03-01T02:34:15;99500.72;;;-11.19;100.00
52319;BME280;38258;51.148;14.068;2023-03-01T02:36:45;99386.56;;;-11.71;100.00
52319;BME280;38258;51.148;14.068;2023-03-01T02:39:15;99483.50;;;-11.13;100.00
52319;BME280;38258;51.148;14.068;2023-03-01T02:41:46;99426.47;;;-11.33;100.00
52319;BME280;38258;51.148;14.068;2023-03-01T02:44:15;99509.31;;;-11.17;100.00
52319;BME280;38258;51.148;14.068;2023-03-01T02:46:46;99537.41;;;-11.02;100.00
52319;BME280;38258;51.148;14.068;2023-03-01T02:49:24;99369.59;;;-12.29;100.00
52319;BME280;38258;51.148;14.068;2023-03-01T02:55:05;99396.25;;;-12.32;100.00
52319;BME280;38258;51.148;14.068;2023-03-01T02:57:34;99293.13;;;-12.95;100.00
52319;BME280;38258;51.148;14.068;2023-03-01T03:00:06;99379.28;;;-12.23;100.00
52319;BME280;38258;51.148;14.068;2023-03-01T03:02:35;99430.81;;;-11.87;100.00
52319;BME280;38258;51.148;14.068;2023-03-01T03:05:14;99454.75;;;-11.82;100.00
52319;BME280;38258;51.148;14.068;2023-03-01T03:07:43;99356.66;;;-12.33;100.00
52319;BME280;38258;51.148;14.068;2023-03-01T03:10:13;99370.31;;;-12.42;100.00
52319;BME280;38258;51.148;14.068;2023-03-01T03:12:41;99533.44;;;-11.20;100.00
52319;BME280;38258;51.148;14.068;2023-03-01T03:15:10;99487.72;;;-11.58;100.00
52319;BME280;38258;51.148;14.068;2023-03-01T03:17:39;99377.84;;;-12.09;100.00
52319;BME280;38258;51.148;14.068;2023-03-01T03:20:09;99526.22;;;-11.38;100.00
52319;BME280;38258;51.148;14.068;2023-03-01T03:22:37;99354.38;;;-12.30;100.00
52319;BME280;38258;51.148;14.068;2023-03-01T03:25:05;99523.50;;;-11.07;100.00
52319;BME280;38258;51.148;14.068;2023-03-01T03:27:35;99352.81;;;-12.18;100.00
52319;BME280;38258;51.148;14.068;2023-03-01T03:30:04;99513.53;;;-11.05;100.00
52319;BME280;38258;51.148;14.068;2023-03-01T03:32:36;99437.09;;;-11.59;100.00
52319;BME280;38258;51.148;14.068;2023-03-01T03:35:03;99512.19;;;-11.12;100.00
52319;BME280;38258;51.148;14.068;2023-03-01T03:37:35;99525.59;;;-11.13;100.00
52319;BME280;38258;51.148;14.068;2023-03-01T03:40:23;99294.66;;;-12.64;100.00
52319;BME280;38258;51.148;14.068;2023-03-01T03:42:52;99244.72;;;-12.58;100.00
52319;BME280;38258;51.148;14.068;2023-03-01T03:45:18;99281.06;;;-12.44;100.00
52319;BME280;38258;51.148;14.068;2023-03-01T03:47:47;99396.66;;;-11.71;100.00
52319;BME280;38258;51.148;14.068;2023-03-01T03:50:15;99361.75;;;-11.99;100.00
52319;BME280;38258;51.148;14.068;2023-03-01T03:52:42;99506.66;;;-10.96;100.00
52319;BME280;38258;51.148;14.068;2023-03-01T03:55:10;99517.91;;;-10.81;100.00
52319;BME280;38258;51.148;14.068;2023-03-01T03:57:40;99480.22;;;-11.12;100.00
52319;BME280;38258;51.148;14.068;2023-03-01T04:00:10;99268.09;;;-12.71;100.00
52319;BME280;38258;51.148;14.068;2023-03-01T04:02:39;99496.69;;;-10.83;100.00
52319;BME280;38258;51.148;14.068;2023-03-01T04:05:09;99376.22;;;-11.52;100.00
52319;BME280;38258;51.148;14.068;2023-03-01T04:07:37;99530.16;;;-10.97;100.00
52319;BME280;38258;51.148;14.068;2023-03-01T04:10:05;99340.25;;;-12.06;100.00
52319;BME280;38258;51.148;14.068;2023-03-01T04:12:32;99383.16;;;-11.94;100.00
52319;BME280;38258;51.148;14.068;2023-03-01T04:15:00;99382.75;;;-11.88;100.00
52319;BME280;38258;51.148;14.068;2023-03-01T04:17:27;99308.31;;;-12.28;100.00
52319;BME280;38258;51.148;14.068;2023-03-01T04:19:54;99517.19;;;-11.24;100.00
52319;BME280;38258;51.148;14.068;2023-03-01T04:22:22;99340.25;;;-12.28;100.00
52319;BME280;38258;51.148;14.068;2023-03-01T04:24:54;99399.19;;;-11.94;100.00
52319;BME280;38258;51.148;14.068;2023-03-01T04:27:21;99295.59;;;-12.84;100.00
52319;BME280;38258;51.148;14.068;2023-03-01T04:29:48;99528.88;;;-11.37;100.00
52319;BME280;38258;51.148;14.068;2023-03-01T04:32:15;99356.81;;;-12.20;100.00
52319;BME280;38258;51.148;14.068;2023-03-01T04:34:41;99393.75;;;-12.10;100.00
52319;BME280;38258;51.148;14.068;2023-03-01T04:37:08;99372.41;;;-12.26;100.00
52319;BME280;38258;51.148;14.068;2023-03-01T04:39:36;99340.25;;;-12.61;100.00
52319;BME280;38258;51.148;14.068;2023-03-01T04:42:10;99280.88;;;-12.90;100.00
52319;BME280;38258;51.148;14.068;2023-03-01T04:44:40;99446.03;;;-11.75;100.00
52319;BME280;38258;51.148;14.068;2023-03-01T04:47:07;99266.53;;;-12.91;100.00
52319;BME280;38258;51.148;14.068;2023-03-01T04:49:33;99444.94;;;-12.33;100.00
52319;BME280;38258;51.148;14.068;2023-03-01T04:52:00;99394.06;;;-12.60;100.00
52319;BME280;38258;51.148;14.068;2023-03-01T04:54:28;99514.97;;;-11.86;100.00
52319;BME280;38258;51.148;14.068;2023-03-01T04:56:59;99401.09;;;-12.46;100.00
52319;BME280;38258;51.148;14.068;2023-03-01T04:59:26;99326.00;;;-12.93;100.00
52319;BME280;38258;51.148;14.068;2023-03-01T05:01:55;99426.44;;;-12.55;100.00
52319;BME280;38258;51.148;14.068;2023-03-01T05:04:49;99407.44;;;-12.61;100.00
52319;BME280;38258;51.148;14.068;2023-03-01T05:07:28;99238.53;;;-13.59;100.00
52319;BME280;38258;51.148;14.068;2023-03-01T05:09:54;99303.66;;;-13.21;100.00
52319;BME280;38258;51.148;14.068;2023-03-01T05:12:23;99532.09;;;-11.50;100.00
52319;BME280;38258;51.148;14.068;2023-03-01T05:14:50;99497.31;;;-11.19;100.00
52319;BME280;38258;51.148;14.068;2023-03-01T05:17:18;99282.97;;;-12.74;100.00
52319;BME280;38258;51.148;14.068;2023-03-01T05:19:45;99456.06;;;-11.65;100.00
52319;BME280;38258;51.148;14.068;2023-03-01T05:22:12;99423.28;;;-11.97;100.00
52319;BME280;38258;51.148;14.068;2023-03-01T05:24:38;99490.47;;;-11.32;100.00
52319;BME280;38258;51.148;14.068;2023-03-01T05:27:05;99257.94;;;-12.83;100.00
52319;BME280;38258;51.148;14.068;2023-03-01T05:29:36;99365.47;;;-12.06;100.00
52319;BME280;38258;51.148;14.068;2023-03-01T05:32:04;99383.06;;;-11.96;100.00
52319;BME280;38258;51.148;14.068;2023-03-01T05:34:33;99387.34;;;-12.17;100.00
52319;BME280;38258;51.148;14.068;2023-03-01T05:37:01;99328.78;;;-12.57;100.00
52319;BME280;38258;51.148;14.068;2023-03-01T05:39:29;99485.66;;;-11.52;100.00
52319;BME280;38258;51.148;14.068;2023-03-01T05:41:58;99478.31;;;-11.48;100.00
52319;BME280;38258;51.148;14.068;2023-03-01T05:44:25;99483.25;;;-11.50;100.00
52319;BME280;38258;51.148;14.068;2023-03-01T05:46:54;99484.88;;;-11.51;100.00
52319;BME280;38258;51.148;14.068;2023-03-01T05:49:22;99488.22;;;-11.62;100.00
52319;BME280;38258;51.148;14.068;2023-03-01T05:51:51;99488.34;;;-11.60;100.00
52319;BME280;38258;51.148;14.068;2023-03-01T05:54:18;99485.38;;;-11.67;100.00
52319;BME280;38258;51.148;14.068;2023-03-01T05:56:45;99489.56;;;-11.55;100.00
52319;BME280;38258;51.148;14.068;2023-03-01T05:59:12;99493.34;;;-11.50;100.00
52319;BME280;38258;51.148;14.068;2023-03-01T06:01:40;99500.38;;;-11.46;100.00
52319;BME280;38258;51.148;14.068;2023-03-01T06:04:08;99503.50;;;-11.60;100.00
52319;BME280;38258;51.148;14.068;2023-03-01T06:06:36;99499.03;;;-11.53;100.00
52319;BME280;38258;51.148;14.068;2023-03-01T06:09:03;99504.63;;;-11.57;100.00
52319;BME280;38258;51.148;14.068;2023-03-01T06:11:30;99496.91;;;-11.36;100.00
52319;BME280;38258;51.148;14.068;2023-03-01T06:13:56;99509.84;;;-11.43;100.00
52319;BME280;38258;51.148;14.068;2023-03-01T06:16:23;99508.19;;;-11.65;100.00
52319;BME280;38258;51.148;14.068;2023-03-01T06:18:50;99508.38;;;-11.29;100.00
52319;BME280;38258;51.148;14.068;2023-03-01T06:21:18;99502.63;;;-11.39;100.00
52319;BME280;38258;51.148;14.068;2023-03-01T06:23:45;99502.69;;;-11.27;100.00
52319;BME280;38258;51.148;14.068;2023-03-01T06:26:12;99504.41;;;-11.03;100.00
52319;BME280;38258;51.148;14.068;2023-03-01T06:28:39;99500.28;;;-10.91;100.00
52319;BME280;38258;51.148;14.068;2023-03-01T06:31:05;99505.03;;;-11.18;100.00
52319;BME280;38258;51.148;14.068;2023-03-01T06:33:34;99499.44;;;-11.36;100.00
52319;BME280;38258;51.148;14.068;2023-03-01T06:36:01;99510.44;;;-11.13;100.00
52319;BME280;38258;51.148;14.068;2023-03-01T06:38:30;99501.03;;;-11.04;100.00
52319;BME280;38258;51.148;14.068;2023-03-01T06:40:56;99490.41;;;-10.88;100.00
52319;BME280;38258;51.148;14.068;2023-03-01T06:43:24;99499.69;;;-10.65;100.00
52319;BME280;38258;51.148;14.068;2023-03-01T06:45:50;99495.09;;;-10.23;100.00
52319;BME280;38258;51.148;14.068;2023-03-01T06:48:17;99496.06;;;-9.85;100.00
52319;BME280;38258;51.148;14.068;2023-03-01T06:50:44;99502.06;;;-9.59;100.00
52319;BME280;38258;51.148;14.068;2023-03-01T06:53:11;99493.94;;;-9.67;100.00
52319;BME280;38258;51.148;14.068;2023-03-01T06:55:39;99490.66;;;-9.40;100.00
52319;BME280;38258;51.148;14.068;2023-03-01T06:58:05;99488.19;;;-9.27;100.00
52319;BME280;38258;51.148;14.068;2023-03-01T07:00:32;99492.91;;;-8.94;100.00
52319;BME280;38258;51.148;14.068;2023-03-01T07:03:00;99498.06;;;-8.67;100.00
52319;BME280;38258;51.148;14.068;2023-03-01T07:05:28;99494.84;;;-8.64;100.00
52319;BME280;38258;51.148;14.068;2023-03-01T07:07:55;99466.81;;;-8.79;100.00
52319;BME280;38258;51.148;14.068;2023-03-01T07:10:22;99488.31;;;-8.47;100.00
52319;BME280;38258;51.148;14.068;2023-03-01T07:12:54;99471.41;;;-8.20;100.00
52319;BME280;38258;51.148;14.068;2023-03-01T07:15:21;99480.59;;;-7.95;100.00
52319;BME280;38258;51.148;14.068;2023-03-01T07:17:48;99479.78;;;-7.67;100.00
52319;BME280;38258;51.148;14.068;2023-03-01T07:20:16;99465.47;;;-7.52;100.00
52319;BME280;38258;51.148;14.068;2023-03-01T07:22:43;99470.31;;;-7.28;100.00
52319;BME280;38258;51.148;14.068;2023-03-01T07:25:10;99480.66;;;-7.25;100.00
52319;BME280;38258;51.148;14.068;2023-03-01T07:27:37;99466.75;;;-7.01;100.00
52319;BME280;38258;51.148;14.068;2023-03-01T07:30:06;99477.78;;;-6.42;100.00
52319;BME280;38258;51.148;14.068;2023-03-01T07:32:33;99471.34;;;-5.89;100.00
52319;BME280;38258;51.148;14.068;2023-03-01T07:35:00;99473.84;;;-5.74;100.00
52319;BME280;38258;51.148;14.068;2023-03-01T07:37:27;99466.25;;;-5.24;100.00
52319;BME280;38258;51.148;14.068;2023-03-01T07:39:53;99460.13;;;-5.44;100.00
52319;BME280;38258;51.148;14.068;2023-03-01T07:42:20;99465.38;;;-5.41;100.00
52319;BME280;38258;51.148;14.068;2023-03-01T07:44:47;99450.69;;;-5.45;100.00
52319;BME280;38258;51.148;14.068;2023-03-01T07:47:15;99459.63;;;-4.87;100.00
52319;BME280;38258;51.148;14.068;2023-03-01T07:49:42;99462.44;;;-4.12;100.00
52319;BME280;38258;51.148;14.068;2023-03-01T07:52:10;99458.56;;;-3.85;100.00
52319;BME280;38258;51.148;14.068;2023-03-01T07:54:37;99460.41;;;-3.45;100.00
52319;BME280;38258;51.148;14.068;2023-03-01T07:57:04;99461.34;;;-3.23;100.00
52319;BME280;38258;51.148;14.068;2023-03-01T07:59:31;99456.75;;;-3.10;100.00
52319;BME280;38258;51.148;14.068;2023-03-01T08:01:58;99464.19;;;-3.17;100.00
52319;BME280;38258;51.148;14.068;2023-03-01T08:04:26;99461.13;;;-2.68;100.00
52319;BME280;38258;51.148;14.068;2023-03-01T08:06:54;99444.00;;;-2.48;100.00
52319;BME280;38258;51.148;14.068;2023-03-01T08:09:21;99444.63;;;-2.75;100.00
52319;BME280;38258;51.148;14.068;2023-03-01T08:11:48;99445.66;;;-2.70;100.00
52319;BME280;38258;51.148;14.068;2023-03-01T08:14:15;99450.91;;;-2.03;100.00
52319;BME280;38258;51.148;14.068;2023-03-01T08:16:42;99452.28;;;-1.90;100.00
52319;BME280;38258;51.148;14.068;2023-03-01T08:19:10;99448.03;;;-1.20;100.00
52319;BME280;38258;51.148;14.068;2023-03-01T08:21:39;99442.19;;;-1.16;100.00
52319;BME280;38258;51.148;14.068;2023-03-01T08:24:07;99439.53;;;-1.42;100.00
52319;BME280;38258;51.148;14.068;2023-03-01T08:26:36;99443.25;;;-1.58;100.00
52319;BME280;38258;51.148;14.068;2023-03-01T08:29:03;99438.44;;;-1.48;100.00
52319;BME280;38258;51.148;14.068;2023-03-01T08:31:32;99447.53;;;-0.85;100.00
52319;BME280;38258;51.148;14.068;2023-03-01T08:34:02;99432.66;;;-0.69;100.00
52319;BME280;38258;51.148;14.068;2023-03-01T08:36:31;99441.97;;;-0.20;100.00
52319;BME280;38258;51.148;14.068;2023-03-01T08:38:59;99433.16;;;-0.54;100.00
52319;BME280;38258;51.148;14.068;2023-03-01T08:41:26;99437.47;;;0.30;100.00
52319;BME280;38258;51.148;14.068;2023-03-01T08:43:53;99426.34;;;0.31;100.00
52319;BME280;38258;51.148;14.068;2023-03-01T08:46:24;99441.81;;;0.03;100.00
52319;BME280;38258;51.148;14.068;2023-03-01T08:48:51;99440.09;;;0.60;100.00
52319;BME280;38258;51.148;14.068;2023-03-01T08:51:19;99442.31;;;0.49;100.00
52319;BME280;38258;51.148;14.068;2023-03-01T08:53:47;99447.31;;;0.43;100.00
52319;BME280;38258;51.148;14.068;2023-03-01T08:56:16;99450.94;;;0.21;100.00
52319;BME280;38258;51.148;14.068;2023-03-01T08:58:44;99434.94;;;0.60;100.00
52319;BME280;38258;51.148;14.068;2023-03-01T09:01:13;99431.50;;;0.92;100.00
52319;BME280;38258;51.148;14.068;2023-03-01T09:03:40;99433.00;;;0.83;99.15
52319;BME280;38258;51.148;14.068;2023-03-01T09:06:08;99425.19;;;1.12;100.00
52319;BME280;38258;51.148;14.068;2023-03-01T09:08:35;99405.94;;;2.07;100.00
52319;BME280;38258;51.148;14.068;2023-03-01T09:11:03;99413.50;;;2.37;93.11
52319;BME280;38258;51.148;14.068;2023-03-01T09:13:31;99416.09;;;2.37;90.11
52319;BME280;38258;51.148;14.068;2023-03-01T09:15:58;99407.50;;;1.98;90.11
52319;BME280;38258;51.148;14.068;2023-03-01T09:18:25;99419.88;;;1.40;85.81
52319;BME280;38258;51.148;14.068;2023-03-01T09:20:52;99406.50;;;2.32;85.47
52319;BME280;38258;51.148;14.068;2023-03-01T09:23:20;99411.75;;;3.24;86.78
52319;BME280;38258;51.148;14.068;2023-03-01T09:25:47;99410.34;;;2.95;84.05
52319;BME280;38258;51.148;14.068;2023-03-01T09:28:14;99415.56;;;2.99;83.43
52319;BME280;38258;51.148;14.068;2023-03-01T09:30:42;99404.38;;;2.53;88.21
52319;BME280;38258;51.148;14.068;2023-03-01T09:33:10;99402.97;;;2.28;84.15
52319;BME280;38258;51.148;14.068;2023-03-01T09:35:40;99408.50;;;2.90;85.97
52319;BME280;38258;51.148;14.068;2023-03-01T09:38:12;99403.41;;;2.93;81.83
52319;BME280;38258;51.148;14.068;2023-03-01T09:40:42;99408.91;;;3.62;77.97
52319;BME280;38258;51.148;14.068;2023-03-01T09:43:15;99414.97;;;2.66;78.21
52319;BME280;38258;51.148;14.068;2023-03-01T09:45:48;99415.16;;;2.77;82.76
52319;BME280;38258;51.148;14.068;2023-03-01T09:48:18;99413.03;;;3.51;78.44
52319;BME280;38258;51.148;14.068;2023-03-01T09:50:48;99410.97;;;2.82;76.97
52319;BME280;38258;51.148;14.068;2023-03-01T09:53:17;99408.94;;;3.11;76.34
52319;BME280;38258;51.148;14.068;2023-03-01T09:55:49;99422.00;;;3.21;82.04
52319;BME280;38258;51.148;14.068;2023-03-01T09:58:37;99408.56;;;2.47;79.83
52319;BME280;38258;51.148;14.068;2023-03-01T10:01:23;99420.03;;;3.06;78.86
52319;BME280;38258;51.148;14.068;2023-03-01T10:04:23;99418.13;;;2.11;74.89
52319;BME280;38258;51.148;14.068;2023-03-01T10:07:01;99407.50;;;2.38;79.55
52319;BME280;38258;51.148;14.068;2023-03-01T10:09:34;99410.47;;;2.57;74.20
52319;BME280;38258;51.148;14.068;2023-03-01T10:12:02;99415.56;;;2.97;77.25
52319;BME280;38258;51.148;14.068;2023-03-01T10:14:35;99408.97;;;2.68;74.70
52319;BME280;38258;51.148;14.068;2023-03-01T10:17:07;99414.19;;;2.29;77.69
52319;BME280;38258;51.148;14.068;2023-03-01T10:19:38;99420.34;;;2.35;77.53
52319;BME280;38258;51.148;14.068;2023-03-01T10:22:13;99416.31;;;2.48;76.86
52319;BME280;38258;51.148;14.068;2023-03-01T10:24:42;99415.38;;;2.88;76.89
52319;BME280;38258;51.148;14.068;2023-03-01T10:27:14;99418.34;;;3.08;75.54
52319;BME280;38258;51.148;14.068;2023-03-01T10:29:45;99413.63;;;3.33;79.26
52319;BME280;38258;51.148;14.068;2023-03-01T10:32:14;99412.03;;;2.93;71.63
52319;BME280;38258;51.148;14.068;2023-03-01T10:34:41;99411.13;;;3.39;73.32
52319;BME280;38258;51.148;14.068;2023-03-01T10:37:10;99410.84;;;3.74;72.20
52319;BME280;38258;51.148;14.068;2023-03-01T10:39:54;99404.53;;;4.15;71.64
52319;BME280;38258;51.148;14.068;2023-03-01T10:42:26;99400.81;;;4.61;75.09
52319;BME280;38258;51.148;14.068;2023-03-01T10:44:54;99412.22;;;4.09;70.52
52319;BME280;38258;51.148;14.068;2023-03-01T10:47:23;99405.06;;;4.57;75.05
52319;BME280;38258;51.148;14.068;2023-03-01T10:49:55;99408.66;;;3.45;68.37
52319;BME280;38258;51.148;14.068;2023-03-01T10:52:25;99405.09;;;3.38;72.84
52319;BME280;38258;51.148;14.068;2023-03-01T10:54:54;99393.09;;;4.65;73.09
52319;BME280;38258;51.148;14.068;2023-03-01T10:57:29;99391.13;;;5.26;70.66
52319;BME280;38258;51.148;14.068;2023-03-01T11:00:21;99381.06;;;4.03;69.54
52319;BME280;38258;51.148;14.068;2023-03-01T11:03:01;99387.84;;;3.94;69.35
52319;BME280;38258;51.148;14.068;2023-03-01T11:05:29;99380.03;;;4.58;71.41
52319;BME280;38258;51.148;14.068;2023-03-01T11:08:00;99386.03;;;3.87;72.67
52319;BME280;38258;51.148;14.068;2023-03-01T11:10:30;99389.44;;;5.31;71.49
52319;BME280;38258;51.148;14.068;2023-03-01T11:13:06;99396.53;;;3.44;68.26
52319;BME280;38258;51.148;14.068;2023-03-01T11:15:34;99395.94;;;3.08;73.15
52319;BME280;38258;51.148;14.068;2023-03-01T11:18:03;99380.66;;;2.73;73.21
52319;BME280;38258;51.148;14.068;2023-03-01T11:20:32;99385.22;;;2.42;77.03
52319;BME280;38258;51.148;14.068;2023-03-01T11:23:04;99376.06;;;2.60;78.63
52319;BME280;38258;51.148;14.068;2023-03-01T11:25:35;99373.25;;;2.47;81.72
52319;BME280;38258;51.148;14.068;2023-03-01T11:28:05;99377.94;;;2.22;84.07
52319;BME280;38258;51.148;14.068;2023-03-01T11:30:35;99374.34;;;2.59;82.34
52319;BME280;38258;51.148;14.068;2023-03-01T11:33:13;99374.69;;;2.77;82.05
52319;BME280;38258;51.148;14.068;2023-03-01T11:35:47;99375.19;;;3.04;79.12
52319;BME280;38258;51.148;14.068;2023-03-01T11:38:20;99365.94;;;2.71;77.06
52319;BME280;38258;51.148;14.068;2023-03-01T11:40:52;99380.13;;;3.41;76.79
52319;BME280;38258;51.148;14.068;2023-03-01T11:43:24;99374.69;;;2.76;72.02
52319;BME280;38258;51.148;14.068;2023-03-01T11:46:28;99369.66;;;2.39;74.03
52319;BME280;38258;51.148;14.068;2023-03-01T11:49:12;99367.19;;;3.42;71.10
52319;BME280;38258;51.148;14.068;2023-03-01T11:51:48;99362.31;;;4.21;72.24
52319;BME280;38258;51.148;14.068;2023-03-01T11:54:33;99366.69;;;3.11;70.48
52319;BME280;38258;51.148;14.068;2023-03-01T11:57:12;99355.84;;;2.83;72.49
52319;BME280;38258;51.148;14.068;2023-03-01T12:00:14;99358.22;;;3.20;72.60
52319;BME280;38258;51.148;14.068;2023-03-01T12:06:12;99354.16;;;3.34;71.07
52319;BME280;38258;51.148;14.068;2023-03-01T12:08:48;99356.31;;;3.62;69.82
52319;BME280;38258;51.148;14.068;2023-03-01T12:11:27;99349.84;;;2.84;73.82
52319;BME280;38258;51.148;14.068;2023-03-01T12:14:13;99348.94;;;3.31;71.95
52319;BME280;38258;51.148;14.068;2023-03-01T12:17:21;99333.56;;;3.42;74.19
52319;BME280;38258;51.148;14.068;2023-03-01T12:20:05;99331.56;;;4.46;74.21
52319;BME280;38258;51.148;14.068;2023-03-01T12:22:48;99327.84;;;5.07;80.53
52319;BME280;38258;51.148;14.068;2023-03-01T12:25:25;99303.44;;;4.06;71.82
52319;BME280;38258;51.148;14.068;2023-03-01T12:28:32;99323.00;;;3.85;72.76
52319;BME280;38258;51.148;14.068;2023-03-01T12:31:42;99325.72;;;3.94;72.92
52319;BME280;38258;51.148;14.068;2023-03-01T12:37:21;99301.63;;;4.77;67.36
52319;BME280;38258;51.148;14.068;2023-03-01T12:40:01;99300.91;;;6.15;68.53
52319;BME280;38258;51.148;14.068;2023-03-01T12:42:36;99300.97;;;4.97;70.05
52319;BME280;38258;51.148;14.068;2023-03-01T12:45:27;99290.13;;;5.46;65.96
52319;BME280;38258;51.148;14.068;2023-03-01T12:48:12;99296.25;;;4.57;74.13
52319;BME280;38258;51.148;14.068;2023-03-01T12:50:43;99297.59;;;5.09;69.68
52319;BME280;38258;51.148;14.068;2023-03-01T12:53:22;99300.44;;;4.44;67.54
52319;BME280;38258;51.148;14.068;2023-03-01T12:55:52;99279.91;;;4.63;70.01
52319;BME280;38258;51.148;14.068;2023-03-01T12:58:25;99305.44;;;4.29;72.40
52319;BME280;38258;51.148;14.068;2023-03-01T13:01:05;99309.56;;;4.13;68.09
52319;BME280;38258;51.148;14.068;2023-03-01T13:03:54;99301.28;;;4.43;67.75
52319;BME280;38258;51.148;14.068;2023-03-01T13:06:29;99283.81;;;4.23;68.09